Камери на живо
METAR for:LBSF (Sofia Observatory, SO, BG)
Text:LBSF 070430Z 00000KT CAVOK 03/03 Q1028 TEMPO 5000 BR
Temperature: 3.0°C ( 37°F)
Dewpoint: 3.0°C ( 37°F) [RH = 100%]
Pressure (altimeter):30.35 inches Hg (1028.0 mb)
Winds:calm
Visibility:6 or more sm (10+ km)
Ceiling:ceiling and visibility are OK
Clouds:unknown

TAF for:LBSF (Sofia Observatory, SO, BG) issued at 2300 UTC 06 Oct 2022
Text:TAF LBSF 062300Z 0700/0724 VRB04KT 9999 SCT060
Forecast period:0000 to 1000 UTC 07 October 2022
Forecast type:FROM: standard forecast or significant change
Winds:variable direction winds at 5 MPH (4 knots; 2.1 m/s)
Visibility:6 or more sm (10+ km)
Ceiling:at least 12,000 feet AGL
Clouds: scattered clouds at 6000 feet AGL
Text:TEMPO 0702/0706 3000 BR SCT005
Forecast period:0200 to 0600 UTC 07 October 2022
Forecast type:TEMPORARY: The following changes expected for less than half the time period
Visibility: 1.86 sm ( 2.99 km)
Ceiling:at least 12,000 feet AGL
Clouds: scattered clouds at 500 feet AGL
Weather:BR (mist)
Text:BECMG 0710/0712 07010KT
Forecast period:1000 UTC 07 October 2022 to 0000 UTC 08 October 2022
Forecast type:BECOMING: Conditions expected to become as follows by 1200 UTC 07 October 2022
Winds:from the ENE (70 degrees) at 12 MPH (10 knots; 5.1 m/s)
Visibility:6 or more sm (10+ km)
Ceiling:at least 12,000 feet AGL
Clouds: scattered clouds at 6000 feet AGL